Time;durP1;ratioP1;P1;durP2;ratioP2;P2;SDS_P1;SDS_P2;PMS_P1;PMS_P2;Temp;Humidity;BMP_temperature;BMP_pressure;BME280_temperature;BME280_humidity;BME280_pressure;Samples;Min_cycle;Max_cycle;Signal;HPM_P1;HPM_P2
2023/12/29 00:00:54;;;;;;;14.73;3.20;;;;;;;;;;5030302;28;20033;-72
2023/12/29 00:03:20;;;;;;;8.75;2.40;;;;;;;;;;5030956;28;20033;-72
2023/12/29 00:05:46;;;;;;;9.82;2.40;;;;;;;;;;5030312;28;20122;-72
2023/12/29 00:08:12;;;;;;;11.68;2.92;;;;;;;;;;5032142;28;20028;-73
2023/12/29 00:10:38;;;;;;;11.57;2.97;;;;;;;;;;5029897;28;20487;-73
2023/12/29 00:13:04;;;;;;;7.13;2.53;;;;;;;;;;5028456;28;20042;-72
2023/12/29 00:15:30;;;;;;;9.00;2.47;;;;;;;;;;5032038;28;20033;-72
2023/12/29 00:17:56;;;;;;;10.27;2.13;;;;;;;;;;5028856;28;20466;-73
2023/12/29 00:20:22;;;;;;;12.00;2.25;;;;;;;;;;5024764;28;20113;-72
2023/12/29 00:22:48;;;;;;;9.60;2.40;;;;;;;;;;5032464;28;20045;-72
2023/12/29 00:25:14;;;;;;;9.90;2.45;;;;;;;;;;5031603;28;20507;-72
2023/12/29 00:27:40;;;;;;;9.27;2.60;;;;;;;;;;5029599;28;20044;-72
2023/12/29 00:30:06;;;;;;;9.88;2.25;;;;;;;;;;5025467;28;20577;-72
2023/12/29 00:32:32;;;;;;;11.63;2.58;;;;;;;;;;5031426;28;20049;-72
2023/12/29 00:34:58;;;;;;;9.20;2.25;;;;;;;;;;5031583;28;20415;-72
2023/12/29 00:37:24;;;;;;;14.60;2.75;;;;;;;;;;5030943;28;20115;-72
2023/12/29 00:39:50;;;;;;;17.63;5.63;;;;;;;;;;5030002;28;20080;-72
2023/12/29 00:42:16;;;;;;;11.70;4.28;;;;;;;;;;5025886;28;20460;-72
2023/12/29 00:44:42;;;;;;;9.48;3.17;;;;;;;;;;5029784;28;20627;-72
2023/12/29 00:47:08;;;;;;;15.80;3.53;;;;;;;;;;5030633;28;20029;-72
2023/12/29 00:49:34;;;;;;;13.57;3.00;;;;;;;;;;5028665;28;20045;-72
2023/12/29 00:52:02;;;;;;;9.90;2.50;;;;;;;;;;5029253;28;20060;-72
2023/12/29 00:54:28;;;;;;;10.93;2.83;;;;;;;;;;5029282;28;20044;-72
2023/12/29 00:56:54;;;;;;;16.70;3.42;;;;;;;;;;5025669;28;20041;-72
2023/12/29 00:59:20;;;;;;;13.02;2.47;;;;;;;;;;5031277;28;20036;-72
2023/12/29 01:01:46;;;;;;;8.30;2.75;;;;;;;;;;5029938;28;20128;-72
2023/12/29 01:04:12;;;;;;;10.80;2.67;;;;;;;;;;5029642;28;20042;-72
2023/12/29 01:06:38;;;;;;;10.27;3.03;;;;;;;;;;5030814;28;20070;-72
2023/12/29 01:09:04;;;;;;;10.95;3.05;;;;;;;;;;5027478;28;20065;-72
2023/12/29 01:11:30;;;;;;;10.02;3.03;;;;;;;;;;5030772;28;20090;-72
2023/12/29 01:13:56;;;;;;;13.55;3.30;;;;;;;;;;5030633;28;20048;-72
2023/12/29 01:16:22;;;;;;;13.35;3.20;;;;;;;;;;5030771;28;20124;-72
2023/12/29 01:18:48;;;;;;;14.60;3.30;;;;;;;;;;5029040;28;20089;-72
2023/12/29 01:21:14;;;;;;;16.58;2.97;;;;;;;;;;5029150;28;20042;-72
2023/12/29 01:26:11;;;;;;;14.68;2.80;;;;;;;;;;5044284;28;20045;-69
2023/12/29 01:28:37;;;;;;;10.05;2.85;;;;;;;;;;5049854;28;20037;-70
2023/12/29 01:31:03;;;;;;;13.93;3.03;;;;;;;;;;5042649;23;20083;-66
2023/12/29 01:33:29;;;;;;;13.82;2.80;;;;;;;;;;5031598;28;20041;-66
2023/12/29 01:35:55;;;;;;;11.35;3.15;;;;;;;;;;5030674;28;20478;-66
2023/12/29 01:38:21;;;;;;;10.90;2.50;;;;;;;;;;5029237;28;20044;-65
2023/12/29 01:40:47;;;;;;;12.73;2.58;;;;;;;;;;5023264;28;20042;-65
2023/12/29 01:43:13;;;;;;;15.45;3.22;;;;;;;;;;5013699;28;20045;-66
2023/12/29 01:45:39;;;;;;;14.43;2.58;;;;;;;;;;5003149;28;20100;-65
2023/12/29 01:48:05;;;;;;;9.90;2.75;;;;;;;;;;5010464;28;20042;-66
2023/12/29 01:50:32;;;;;;;13.27;2.80;;;;;;;;;;5008310;28;20049;-65
2023/12/29 01:52:58;;;;;;;8.73;2.72;;;;;;;;;;5013520;28;20053;-65
2023/12/29 01:55:25;;;;;;;15.98;3.10;;;;;;;;;;5007403;28;20620;-65
2023/12/29 01:57:51;;;;;;;11.98;2.75;;;;;;;;;;5005726;28;20121;-66
2023/12/29 02:00:18;;;;;;;9.80;2.38;;;;;;;;;;5008845;28;20482;-67
2023/12/29 02:02:44;;;;;;;11.27;2.70;;;;;;;;;;5011332;28;20061;-67
2023/12/29 02:05:13;;;;;;;11.93;2.42;;;;;;;;;;5008063;28;20053;-66
2023/12/29 02:07:40;;;;;;;12.07;2.85;;;;;;;;;;5010370;28;20045;-66
2023/12/29 02:10:07;;;;;;;9.02;2.92;;;;;;;;;;5011417;28;20616;-66
2023/12/29 02:12:34;;;;;;;11.40;2.85;;;;;;;;;;5010859;28;20120;-66
2023/12/29 02:15:00;;;;;;;12.68;2.97;;;;;;;;;;5009007;28;20034;-66
2023/12/29 02:17:32;;;;;;;11.93;2.42;;;;;;;;;;5014079;28;20045;-66
2023/12/29 02:19:58;;;;;;;11.77;2.70;;;;;;;;;;5008645;28;20122;-66
2023/12/29 02:22:24;;;;;;;12.30;2.92;;;;;;;;;;5013708;28;20056;-66
2023/12/29 02:24:50;;;;;;;12.05;2.60;;;;;;;;;;5007106;28;20050;-66
2023/12/29 02:27:39;;;;;;;12.82;2.72;;;;;;;;;;5011792;28;20070;-65
2023/12/29 02:30:10;;;;;;;12.15;2.97;;;;;;;;;;5001186;28;20079;-65
2023/12/29 02:32:39;;;;;;;10.30;2.42;;;;;;;;;;5018926;28;20096;-66
2023/12/29 02:35:07;;;;;;;9.82;2.22;;;;;;;;;;5006678;28;20121;-66
2023/12/29 02:37:34;;;;;;;11.25;2.45;;;;;;;;;;5005247;28;20501;-66
2023/12/29 02:40:00;;;;;;;11.18;2.60;;;;;;;;;;5007791;28;20127;-66
2023/12/29 02:42:26;;;;;;;6.60;2.03;;;;;;;;;;5012219;28;20121;-66
2023/12/29 02:44:52;;;;;;;9.18;2.47;;;;;;;;;;5008940;28;20092;-66
2023/12/29 02:47:19;;;;;;;14.15;2.40;;;;;;;;;;5010740;28;20046;-66
2023/12/29 02:49:45;;;;;;;7.25;2.67;;;;;;;;;;5006530;28;20581;-66
2023/12/29 02:52:11;;;;;;;10.15;2.65;;;;;;;;;;5011609;28;20049;-66
2023/12/29 02:54:37;;;;;;;9.95;2.78;;;;;;;;;;5013786;28;20038;-66
2023/12/29 02:57:03;;;;;;;6.22;1.77;;;;;;;;;;5011678;28;20545;-66
2023/12/29 02:59:29;;;;;;;9.77;2.63;;;;;;;;;;5006173;28;20037;-66
2023/12/29 03:01:55;;;;;;;10.27;2.50;;;;;;;;;;5000773;28;20406;-66
2023/12/29 03:04:21;;;;;;;17.98;2.97;;;;;;;;;;5006926;28;20041;-66
2023/12/29 03:06:47;;;;;;;11.98;2.58;;;;;;;;;;5011917;28;20042;-66
2023/12/29 03:09:13;;;;;;;11.68;2.83;;;;;;;;;;5021837;28;20038;-66
2023/12/29 03:11:39;;;;;;;11.88;2.60;;;;;;;;;;5021671;28;20046;-66
2023/12/29 03:14:05;;;;;;;8.98;2.40;;;;;;;;;;5008718;28;20041;-66
2023/12/29 03:16:31;;;;;;;11.65;2.67;;;;;;;;;;5011161;28;20138;-66
2023/12/29 03:18:56;;;;;;;10.85;2.95;;;;;;;;;;5010745;28;20466;-66
2023/12/29 03:21:22;;;;;;;7.95;2.47;;;;;;;;;;5007385;28;20035;-66
2023/12/29 03:23:48;;;;;;;10.77;2.78;;;;;;;;;;4997738;28;20038;-66
2023/12/29 03:26:14;;;;;;;12.38;2.80;;;;;;;;;;5006126;28;20044;-66
2023/12/29 03:28:40;;;;;;;9.68;2.35;;;;;;;;;;5009026;28;20074;-66
2023/12/29 03:31:06;;;;;;;13.05;2.75;;;;;;;;;;5005203;28;20060;-66
2023/12/29 03:33:32;;;;;;;7.75;2.63;;;;;;;;;;5006286;28;20049;-66
2023/12/29 03:35:59;;;;;;;8.93;2.30;;;;;;;;;;5010860;28;20034;-66
2023/12/29 03:38:25;;;;;;;9.13;2.42;;;;;;;;;;5006472;28;20109;-66
2023/12/29 03:40:51;;;;;;;12.57;2.20;;;;;;;;;;5007798;28;20089;-65
2023/12/29 03:43:17;;;;;;;12.20;3.33;;;;;;;;;;5002424;28;20442;-66
2023/12/29 03:45:43;;;;;;;8.68;2.45;;;;;;;;;;5001990;28;20129;-65
2023/12/29 03:48:09;;;;;;;10.40;2.00;;;;;;;;;;5004253;28;20133;-65
2023/12/29 03:50:36;;;;;;;9.57;2.53;;;;;;;;;;5003944;28;20045;-66
2023/12/29 03:53:02;;;;;;;6.35;2.25;;;;;;;;;;5006736;28;20049;-65
2023/12/29 03:55:28;;;;;;;15.93;2.55;;;;;;;;;;5004122;28;20050;-65
2023/12/29 03:57:54;;;;;;;8.50;2.47;;;;;;;;;;5005879;28;20506;-65
2023/12/29 04:00:20;;;;;;;10.07;2.63;;;;;;;;;;5003236;28;20077;-66
2023/12/29 04:02:46;;;;;;;10.07;2.50;;;;;;;;;;5003274;28;20038;-65
2023/12/29 04:05:12;;;;;;;10.68;2.88;;;;;;;;;;5004855;28;20053;-65
2023/12/29 04:07:41;;;;;;;14.18;3.03;;;;;;;;;;5006417;28;20038;-65
2023/12/29 04:10:08;;;;;;;12.52;2.90;;;;;;;;;;5010940;28;20048;-65
2023/12/29 04:12:34;;;;;;;14.20;2.70;;;;;;;;;;4998143;28;20169;-65
2023/12/29 04:15:00;;;;;;;13.57;2.75;;;;;;;;;;5004461;28;20197;-65
2023/12/29 04:17:26;;;;;;;14.43;3.40;;;;;;;;;;5007353;28;20041;-65
2023/12/29 04:19:53;;;;;;;15.32;3.00;;;;;;;;;;5006614;28;20453;-65
2023/12/29 04:22:19;;;;;;;8.75;2.55;;;;;;;;;;5005341;28;20080;-65
2023/12/29 04:24:44;;;;;;;13.82;3.28;;;;;;;;;;5004879;28;20523;-65
2023/12/29 04:27:11;;;;;;;15.80;3.05;;;;;;;;;;5003997;28;20052;-65
2023/12/29 04:29:37;;;;;;;20.08;3.05;;;;;;;;;;5009888;28;20448;-66
2023/12/29 04:32:03;;;;;;;12.00;2.90;;;;;;;;;;5003869;28;20045;-66
2023/12/29 04:34:29;;;;;;;23.88;3.92;;;;;;;;;;5004814;28;20046;-66
2023/12/29 04:36:55;;;;;;;14.80;3.17;;;;;;;;;;5011706;28;20042;-66
2023/12/29 04:39:20;;;;;;;17.33;3.10;;;;;;;;;;5007900;28;20038;-66
2023/12/29 04:41:46;;;;;;;16.33;3.40;;;;;;;;;;5011142;28;20041;-65
2023/12/29 04:44:12;;;;;;;12.02;2.88;;;;;;;;;;5010936;28;20497;-65
2023/12/29 04:46:38;;;;;;;13.68;2.35;;;;;;;;;;5010276;28;20050;-65
2023/12/29 04:49:04;;;;;;;15.40;3.03;;;;;;;;;;5006885;28;20045;-65
2023/12/29 04:51:30;;;;;;;21.17;3.53;;;;;;;;;;5008012;28;20583;-65
2023/12/29 04:53:56;;;;;;;12.05;2.75;;;;;;;;;;5000508;28;20057;-65
2023/12/29 04:56:22;;;;;;;14.73;3.08;;;;;;;;;;5009866;28;20118;-65
2023/12/29 04:58:48;;;;;;;17.67;2.88;;;;;;;;;;5002962;28;20038;-65
2023/12/29 05:01:14;;;;;;;13.18;2.53;;;;;;;;;;5004433;28;20030;-65
2023/12/29 05:03:40;;;;;;;11.98;3.00;;;;;;;;;;5004442;28;20133;-65
2023/12/29 05:06:06;;;;;;;14.50;3.28;;;;;;;;;;5006113;28;20426;-65
2023/12/29 05:08:32;;;;;;;13.23;3.10;;;;;;;;;;5004629;28;20054;-65
2023/12/29 05:10:58;;;;;;;17.30;3.10;;;;;;;;;;5006205;28;20167;-65
2023/12/29 05:13:24;;;;;;;17.48;3.00;;;;;;;;;;4996294;28;20046;-65
2023/12/29 05:15:50;;;;;;;15.00;2.95;;;;;;;;;;5008563;28;20042;-65
2023/12/29 05:18:16;;;;;;;16.42;3.22;;;;;;;;;;5002613;28;20054;-65
2023/12/29 05:20:43;;;;;;;16.67;3.25;;;;;;;;;;5008738;28;20125;-65
2023/12/29 05:23:09;;;;;;;16.58;2.83;;;;;;;;;;5008412;28;20041;-65
2023/12/29 05:25:35;;;;;;;17.40;3.42;;;;;;;;;;5006984;28;20394;-65
2023/12/29 05:28:01;;;;;;;19.23;3.50;;;;;;;;;;5005428;28;20142;-65
2023/12/29 05:30:27;;;;;;;14.43;3.03;;;;;;;;;;5000150;28;20503;-66
2023/12/29 05:32:53;;;;;;;14.88;3.67;;;;;;;;;;5004132;28;20046;-65
2023/12/29 05:35:20;;;;;;;16.30;2.78;;;;;;;;;;5001922;28;20038;-65
2023/12/29 05:37:46;;;;;;;14.13;2.97;;;;;;;;;;5004806;28;20045;-65
2023/12/29 05:40:12;;;;;;;13.00;2.75;;;;;;;;;;5006228;28;20453;-65
2023/12/29 05:42:38;;;;;;;15.93;2.50;;;;;;;;;;4998060;28;20092;-65
2023/12/29 05:45:04;;;;;;;21.73;3.65;;;;;;;;;;5003191;28;20041;-65
2023/12/29 05:47:30;;;;;;;19.48;3.20;;;;;;;;;;5000612;28;20057;-65
2023/12/29 05:49:56;;;;;;;18.20;3.22;;;;;;;;;;4995114;28;20087;-65
2023/12/29 05:52:22;;;;;;;18.35;3.70;;;;;;;;;;4996685;28;20053;-65
2023/12/29 05:54:48;;;;;;;24.10;3.70;;;;;;;;;;5008481;28;20041;-65
2023/12/29 05:57:14;;;;;;;20.27;3.13;;;;;;;;;;4998374;28;20042;-65
2023/12/29 05:59:40;;;;;;;18.23;2.90;;;;;;;;;;5001036;28;20132;-66
2023/12/29 06:02:06;;;;;;;14.98;3.05;;;;;;;;;;5000720;28;20050;-66
2023/12/29 06:04:32;;;;;;;18.48;3.03;;;;;;;;;;5002433;28;20468;-66
2023/12/29 06:06:58;;;;;;;18.40;3.40;;;;;;;;;;5005106;28;20117;-66
2023/12/29 06:09:24;;;;;;;16.13;3.13;;;;;;;;;;5001558;28;20038;-66
2023/12/29 06:11:50;;;;;;;16.30;3.25;;;;;;;;;;5003727;28;20132;-66
2023/12/29 06:14:16;;;;;;;24.95;3.40;;;;;;;;;;4996934;28;20046;-66
2023/12/29 06:16:42;;;;;;;19.23;3.88;;;;;;;;;;4987517;28;20050;-66
2023/12/29 06:19:09;;;;;;;19.00;3.28;;;;;;;;;;5005636;28;20052;-65
2023/12/29 06:21:41;;;;;;;21.45;4.03;;;;;;;;;;5009674;28;20085;-65
2023/12/29 06:24:07;;;;;;;20.42;3.92;;;;;;;;;;5009596;28;20056;-65
2023/12/29 06:26:33;;;;;;;17.95;3.20;;;;;;;;;;5009468;28;20042;-65
2023/12/29 06:28:59;;;;;;;20.23;3.72;;;;;;;;;;5026426;28;20542;-65
2023/12/29 06:31:25;;;;;;;19.58;3.40;;;;;;;;;;5005660;28;20081;-65
2023/12/29 06:33:51;;;;;;;19.10;3.45;;;;;;;;;;5004110;28;20056;-65
2023/12/29 06:36:17;;;;;;;21.50;4.22;;;;;;;;;;5008757;28;20041;-66
2023/12/29 06:38:48;;;;;;;20.98;3.47;;;;;;;;;;5010849;28;20038;-65
2023/12/29 06:41:14;;;;;;;22.23;3.47;;;;;;;;;;4994722;28;20457;-65
2023/12/29 06:43:40;;;;;;;22.77;3.85;;;;;;;;;;5000708;28;20446;-65
2023/12/29 06:46:08;;;;;;;22.90;4.38;;;;;;;;;;5007068;28;20049;-65
2023/12/29 06:48:34;;;;;;;18.20;3.25;;;;;;;;;;5004253;28;20442;-65
2023/12/29 06:51:00;;;;;;;26.55;4.00;;;;;;;;;;4996036;28;20045;-65
2023/12/29 06:53:26;;;;;;;19.58;4.00;;;;;;;;;;5000660;28;20570;-65
2023/12/29 06:55:52;;;;;;;21.40;4.28;;;;;;;;;;4994334;28;20049;-65
2023/12/29 06:58:18;;;;;;;29.63;4.50;;;;;;;;;;5009219;28;20085;-65
2023/12/29 07:00:44;;;;;;;24.33;3.47;;;;;;;;;;5010695;28;20049;-65
2023/12/29 07:03:13;;;;;;;21.88;3.03;;;;;;;;;;5012600;28;20052;-65
2023/12/29 07:05:38;;;;;;;26.38;4.18;;;;;;;;;;5007255;28;20034;-65
2023/12/29 07:08:05;;;;;;;15.88;4.00;;;;;;;;;;5000958;28;20460;-65
2023/12/29 07:10:31;;;;;;;24.38;4.70;;;;;;;;;;5008441;28;20490;-65
2023/12/29 07:12:57;;;;;;;27.65;4.22;;;;;;;;;;5011956;28;20089;-65
2023/12/29 07:15:23;;;;;;;25.05;3.95;;;;;;;;;;5011615;28;20030;-66
2023/12/29 07:17:49;;;;;;;21.77;4.03;;;;;;;;;;5008201;28;20049;-66
2023/12/29 07:20:15;;;;;;;23.23;4.38;;;;;;;;;;5011155;28;20121;-65
2023/12/29 07:22:41;;;;;;;23.85;4.05;;;;;;;;;;5007725;28;20139;-65
2023/12/29 07:25:07;;;;;;;20.77;3.65;;;;;;;;;;5006964;28;20513;-66
2023/12/29 07:27:33;;;;;;;20.27;4.00;;;;;;;;;;5008651;28;20046;-66
2023/12/29 07:29:59;;;;;;;18.75;3.70;;;;;;;;;;5004472;28;20048;-66
2023/12/29 07:32:25;;;;;;;20.08;3.65;;;;;;;;;;5067289;23;20126;-72
2023/12/29 07:34:51;;;;;;;21.80;3.85;;;;;;;;;;5051346;28;20171;-72
2023/12/29 07:37:17;;;;;;;25.52;3.55;;;;;;;;;;5053607;28;20033;-72
2023/12/29 07:39:43;;;;;;;20.27;3.83;;;;;;;;;;5047360;28;20520;-72
2023/12/29 07:42:10;;;;;;;26.02;4.47;;;;;;;;;;5042797;28;20047;-72
2023/12/29 07:44:36;;;;;;;24.38;4.47;;;;;;;;;;5042422;28;20045;-73
2023/12/29 07:47:01;;;;;;;21.80;4.05;;;;;;;;;;5046858;28;20102;-73
2023/12/29 07:49:28;;;;;;;24.75;4.72;;;;;;;;;;5041558;28;20037;-73
2023/12/29 07:51:54;;;;;;;19.50;3.75;;;;;;;;;;5040916;28;20120;-73
2023/12/29 07:54:19;;;;;;;21.60;3.63;;;;;;;;;;5039923;28;20165;-73
2023/12/29 07:56:45;;;;;;;19.63;4.53;;;;;;;;;;5034354;28;20202;-73
2023/12/29 07:59:11;;;;;;;14.00;3.17;;;;;;;;;;5032447;28;20107;-72
2023/12/29 08:01:38;;;;;;;24.08;4.00;;;;;;;;;;5034779;28;20044;-72
2023/12/29 08:04:04;;;;;;;15.65;3.85;;;;;;;;;;5042850;28;20098;-72
2023/12/29 08:06:30;;;;;;;21.75;4.45;;;;;;;;;;5040908;28;20075;-73
2023/12/29 08:08:56;;;;;;;17.50;3.83;;;;;;;;;;5043976;28;20045;-72
2023/12/29 08:11:22;;;;;;;20.25;3.45;;;;;;;;;;5034138;28;20037;-73
2023/12/29 08:13:49;;;;;;;18.08;2.97;;;;;;;;;;5048131;28;20569;-72
2023/12/29 08:16:17;;;;;;;23.15;4.20;;;;;;;;;;5043544;28;20033;-72
2023/12/29 08:18:43;;;;;;;20.25;4.20;;;;;;;;;;5028413;28;20037;-72
2023/12/29 08:21:09;;;;;;;21.63;3.60;;;;;;;;;;5031574;28;20044;-72
2023/12/29 08:23:35;;;;;;;20.20;3.45;;;;;;;;;;5018194;28;20053;-72
2023/12/29 08:26:03;;;;;;;16.67;3.30;;;;;;;;;;5033819;28;20123;-72
2023/12/29 08:28:29;;;;;;;22.35;3.85;;;;;;;;;;5028170;28;20040;-72
2023/12/29 08:30:55;;;;;;;20.13;3.90;;;;;;;;;;5035959;28;20060;-72
2023/12/29 08:33:21;;;;;;;16.35;3.42;;;;;;;;;;5026616;28;20040;-73
2023/12/29 08:35:47;;;;;;;19.15;3.50;;;;;;;;;;5043695;28;20045;-72
2023/12/29 08:38:13;;;;;;;20.08;3.72;;;;;;;;;;5028637;28;20053;-73
2023/12/29 08:40:39;;;;;;;17.88;3.17;;;;;;;;;;5024933;28;20037;-73
2023/12/29 08:43:05;;;;;;;13.73;3.20;;;;;;;;;;5025523;28;20041;-72
2023/12/29 08:45:31;;;;;;;19.85;3.50;;;;;;;;;;5032747;28;20406;-73
2023/12/29 08:47:57;;;;;;;23.63;4.38;;;;;;;;;;5028463;28;20046;-72
2023/12/29 08:50:23;;;;;;;18.98;4.00;;;;;;;;;;5026692;28;20037;-73
2023/12/29 08:52:48;;;;;;;15.80;3.30;;;;;;;;;;5039636;28;20033;-73
2023/12/29 08:55:14;;;;;;;17.25;3.83;;;;;;;;;;5041588;28;20539;-73
2023/12/29 08:57:40;;;;;;;16.50;3.25;;;;;;;;;;5038839;28;20029;-73
2023/12/29 09:00:09;;;;;;;14.57;3.50;;;;;;;;;;5027925;28;20116;-73
2023/12/29 09:02:35;;;;;;;17.83;3.33;;;;;;;;;;5023532;28;20095;-73
2023/12/29 09:05:01;;;;;;;14.55;3.53;;;;;;;;;;5036281;28;20029;-73
2023/12/29 09:07:28;;;;;;;20.85;3.78;;;;;;;;;;5032079;28;20064;-73
2023/12/29 09:09:54;;;;;;;13.40;2.95;;;;;;;;;;5040506;28;20124;-73
2023/12/29 09:12:20;;;;;;;13.13;3.05;;;;;;;;;;5038782;28;20634;-73
2023/12/29 09:14:46;;;;;;;21.38;3.38;;;;;;;;;;5044246;28;20040;-73
2023/12/29 09:17:11;;;;;;;13.05;2.53;;;;;;;;;;5038049;28;20526;-73
2023/12/29 09:19:37;;;;;;;14.88;2.90;;;;;;;;;;5046660;28;20598;-72
2023/12/29 09:22:03;;;;;;;14.48;2.50;;;;;;;;;;5038451;28;20171;-72
2023/12/29 09:24:29;;;;;;;11.75;2.47;;;;;;;;;;5045123;28;20044;-72
2023/12/29 09:26:55;;;;;;;10.13;2.88;;;;;;;;;;5037060;28;20513;-73
2023/12/29 09:29:21;;;;;;;13.57;2.85;;;;;;;;;;5022061;28;20052;-72
2023/12/29 09:31:47;;;;;;;12.95;2.92;;;;;;;;;;5037284;28;20099;-73
2023/12/29 09:34:13;;;;;;;10.98;2.97;;;;;;;;;;5034286;28;20403;-72
2023/12/29 09:36:39;;;;;;;6.75;2.45;;;;;;;;;;5042283;28;20041;-72
2023/12/29 09:39:05;;;;;;;11.27;2.80;;;;;;;;;;5027893;28;20038;-72
2023/12/29 09:41:32;;;;;;;14.32;2.38;;;;;;;;;;5043253;28;20409;-72
2023/12/29 09:43:58;;;;;;;8.32;2.45;;;;;;;;;;5046121;28;20048;-72
2023/12/29 09:46:25;;;;;;;12.93;2.85;;;;;;;;;;5045117;28;20037;-73
2023/12/29 09:48:52;;;;;;;6.18;2.33;;;;;;;;;;5046202;28;20044;-72
2023/12/29 09:51:22;;;;;;;10.02;2.72;;;;;;;;;;5043298;28;20069;-72
2023/12/29 09:53:49;;;;;;;5.95;2.28;;;;;;;;;;5042583;28;20080;-72
2023/12/29 09:56:15;;;;;;;11.55;2.55;;;;;;;;;;5047414;28;20248;-73
2023/12/29 09:58:41;;;;;;;9.77;2.53;;;;;;;;;;5050553;28;20449;-73
2023/12/29 10:01:07;;;;;;;9.98;2.28;;;;;;;;;;5046130;28;20033;-73
2023/12/29 10:03:33;;;;;;;6.97;1.77;;;;;;;;;;5047575;28;20053;-73
2023/12/29 10:06:10;;;;;;;8.18;2.45;;;;;;;;;;5041487;28;20083;-72
2023/12/29 10:08:38;;;;;;;12.32;2.38;;;;;;;;;;5039317;28;20045;-72
2023/12/29 10:11:05;;;;;;;7.88;1.80;;;;;;;;;;5047457;28;20102;-74
2023/12/29 10:13:32;;;;;;;6.85;1.70;;;;;;;;;;5046579;28;20041;-72
2023/12/29 10:16:04;;;;;;;5.57;1.65;;;;;;;;;;5027563;28;20045;-72
2023/12/29 10:18:38;;;;;;;5.32;1.85;;;;;;;;;;5035612;28;20445;-72
2023/12/29 10:21:28;;;;;;;5.90;1.88;;;;;;;;;;5048572;28;20040;-73
2023/12/29 10:24:06;;;;;;;8.38;2.00;;;;;;;;;;5035091;28;20095;-72
2023/12/29 10:26:32;;;;;;;6.07;1.52;;;;;;;;;;5046425;28;20514;-72
2023/12/29 10:28:59;;;;;;;7.82;1.60;;;;;;;;;;5033445;28;20048;-72
2023/12/29 10:31:25;;;;;;;8.18;1.60;;;;;;;;;;5048530;28;20554;-73
2023/12/29 10:33:52;;;;;;;3.15;1.05;;;;;;;;;;5037592;28;20127;-72
2023/12/29 10:36:18;;;;;;;3.15;0.80;;;;;;;;;;5044296;28;20386;-72
2023/12/29 10:38:44;;;;;;;2.38;0.60;;;;;;;;;;5049991;28;20539;-72
2023/12/29 10:41:11;;;;;;;3.40;0.63;;;;;;;;;;5017240;28;20038;-72
2023/12/29 10:43:37;;;;;;;3.78;0.50;;;;;;;;;;5036305;28;20092;-73
2023/12/29 10:46:08;;;;;;;1.63;0.50;;;;;;;;;;5045614;28;20044;-72
2023/12/29 10:48:34;;;;;;;5.15;0.63;;;;;;;;;;5037759;28;20089;-72
2023/12/29 10:51:03;;;;;;;3.42;0.82;;;;;;;;;;5036354;28;20401;-72
2023/12/29 10:53:29;;;;;;;5.65;1.20;;;;;;;;;;5043651;28;20042;-72
2023/12/29 10:55:58;;;;;;;4.32;0.95;;;;;;;;;;5039240;28;20148;-73
2023/12/29 11:01:00;;;;;;;2.80;1.10;;;;;;;;;;5603414;23;20226;-74
2023/12/29 11:03:26;;;;;;;4.95;1.05;;;;;;;;;;5025783;28;20124;-72
2023/12/29 11:06:02;;;;;;;4.82;1.05;;;;;;;;;;5000060;28;20046;-71
2023/12/29 11:08:28;;;;;;;2.85;1.02;;;;;;;;;;5034149;28;20033;-71
2023/12/29 11:10:55;;;;;;;3.45;0.95;;;;;;;;;;5023153;28;20034;-72
2023/12/29 11:13:21;;;;;;;5.55;1.75;;;;;;;;;;5030722;23;20120;-68
2023/12/29 11:15:47;;;;;;;6.35;1.48;;;;;;;;;;5006598;28;20092;-70
2023/12/29 11:18:17;;;;;;;7.57;1.38;;;;;;;;;;5032201;28;20026;-70
2023/12/29 11:20:44;;;;;;;11.00;1.60;;;;;;;;;;5015249;28;20045;-70
2023/12/29 11:23:13;;;;;;;9.25;1.85;;;;;;;;;;5013641;28;20092;-71
2023/12/29 11:25:39;;;;;;;10.80;1.60;;;;;;;;;;5014092;28;20552;-71
2023/12/29 11:28:11;;;;;;;10.48;1.60;;;;;;;;;;5006792;28;20073;-70
2023/12/29 11:30:39;;;;;;;7.93;1.80;;;;;;;;;;5007745;28;20046;-70
2023/12/29 11:33:11;;;;;;;7.78;1.75;;;;;;;;;;4993502;28;20132;-70
2023/12/29 11:35:41;;;;;;;8.40;1.73;;;;;;;;;;5010852;28;20050;-71
2023/12/29 11:38:13;;;;;;;5.45;1.70;;;;;;;;;;5011019;28;20077;-71
2023/12/29 11:40:42;;;;;;;7.95;1.92;;;;;;;;;;5005109;28;20464;-71
2023/12/29 11:43:12;;;;;;;8.45;1.73;;;;;;;;;;4986905;28;20050;-71
2023/12/29 11:45:39;;;;;;;8.50;1.83;;;;;;;;;;5005361;28;20462;-71
2023/12/29 11:48:05;;;;;;;12.75;2.85;;;;;;;;;;5007272;28;20054;-71
2023/12/29 11:50:36;;;;;;;8.77;2.03;;;;;;;;;;5005585;28;20318;-71
2023/12/29 11:53:02;;;;;;;;;;;;;;;;;;4987580;28;20070;-71
2023/12/29 11:55:33;;;;;;;8.63;2.17;;;;;;;;;;4994380;28;19963;-71
2023/12/29 11:58:00;;;;;;;14.10;2.65;;;;;;;;;;5003031;28;20070;-71
2023/12/29 12:00:44;;;;;;;4.63;1.95;;;;;;;;;;5003926;28;20045;-71
2023/12/29 12:03:14;;;;;;;13.60;2.85;;;;;;;;;;5010014;28;20070;-71
2023/12/29 12:05:47;;;;;;;8.27;2.38;;;;;;;;;;5012210;28;20093;-71
2023/12/29 12:08:26;;;;;;;12.60;2.50;;;;;;;;;;5012126;28;20038;-71
2023/12/29 12:10:52;;;;;;;11.20;2.40;;;;;;;;;;5012108;28;20519;-71
2023/12/29 12:13:37;;;;;;;10.70;2.47;;;;;;;;;;4993513;28;20124;-70
2023/12/29 12:16:03;;;;;;;10.98;2.40;;;;;;;;;;5012735;28;20113;-70
2023/12/29 12:18:30;;;;;;;15.40;2.65;;;;;;;;;;5012649;28;20041;-70
2023/12/29 12:20:57;;;;;;;10.57;2.67;;;;;;;;;;5012762;28;20153;-71
2023/12/29 12:23:25;;;;;;;9.15;1.92;;;;;;;;;;5012227;28;20037;-71
2023/12/29 12:25:52;;;;;;;11.30;2.20;;;;;;;;;;5012512;28;20120;-71
2023/12/29 12:28:18;;;;;;;14.15;2.55;;;;;;;;;;5005088;28;20034;-71
2023/12/29 12:30:44;;;;;;;14.75;2.13;;;;;;;;;;4988136;28;20046;-71
2023/12/29 12:33:13;;;;;;;7.85;1.70;;;;;;;;;;5006733;28;20376;-71
2023/12/29 12:35:40;;;;;;;13.20;2.67;;;;;;;;;;5012176;28;20483;-71
2023/12/29 12:38:11;;;;;;;11.18;2.15;;;;;;;;;;5006907;28;20041;-71
2023/12/29 12:40:38;;;;;;;10.15;1.90;;;;;;;;;;4986480;28;20380;-71
2023/12/29 12:43:04;;;;;;;12.82;2.13;;;;;;;;;;5011873;28;20046;-71
2023/12/29 12:45:34;;;;;;;9.75;2.53;;;;;;;;;;5012768;28;20443;-71
2023/12/29 12:48:04;;;;;;;10.15;1.67;;;;;;;;;;5012370;28;20040;-71
2023/12/29 12:50:30;;;;;;;11.93;1.93;;;;;;;;;;5011348;28;20046;-70
2023/12/29 12:52:58;;;;;;;18.00;2.90;;;;;;;;;;4994260;28;20041;-70
2023/12/29 12:55:24;;;;;;;10.77;2.40;;;;;;;;;;4994264;28;20494;-70
2023/12/29 12:57:50;;;;;;;10.50;2.50;;;;;;;;;;5011660;28;20116;-71
2023/12/29 13:00:17;;;;;;;11.23;2.50;;;;;;;;;;5003907;28;20034;-70
2023/12/29 13:02:45;;;;;;;11.38;2.22;;;;;;;;;;5003825;28;20052;-72
2023/12/29 13:05:11;;;;;;;10.50;2.20;;;;;;;;;;4983052;28;20038;-72
2023/12/29 13:07:37;;;;;;;12.52;2.22;;;;;;;;;;4997215;28;20530;-71
2023/12/29 13:10:03;;;;;;;15.30;2.45;;;;;;;;;;4992684;28;20038;-72
2023/12/29 13:12:29;;;;;;;9.10;2.35;;;;;;;;;;5012036;28;20403;-71
2023/12/29 13:15:06;;;;;;;16.40;2.58;;;;;;;;;;5007449;28;20042;-70
2023/12/29 13:17:32;;;;;;;9.50;2.00;;;;;;;;;;5006186;28;20132;-71
2023/12/29 13:19:58;;;;;;;14.18;2.22;;;;;;;;;;5005473;28;20041;-71
2023/12/29 13:22:27;;;;;;;12.95;2.65;;;;;;;;;;5011558;28;20038;-71
2023/12/29 13:24:54;;;;;;;12.82;2.67;;;;;;;;;;5011924;28;20049;-71
2023/12/29 13:27:21;;;;;;;12.20;2.58;;;;;;;;;;5015164;28;20037;-70
2023/12/29 13:29:48;;;;;;;10.07;2.25;;;;;;;;;;5014519;28;20042;-70
2023/12/29 13:32:20;;;;;;;11.52;2.42;;;;;;;;;;5010563;28;20050;-70
2023/12/29 13:34:52;;;;;;;14.35;2.00;;;;;;;;;;4990153;28;20169;-70
2023/12/29 13:37:54;;;;;;;7.85;1.98;;;;;;;;;;5014211;28;20487;-70
2023/12/29 13:40:19;;;;;;;;;;;;;;;;;;4944746;29;20032;-70
2023/12/29 13:42:47;;;;;;;10.13;1.80;;;;;;;;;;4997714;28;20370;-70
2023/12/29 13:45:13;;;;;;;9.20;1.50;;;;;;;;;;5015048;28;20050;-70
2023/12/29 13:47:39;;;;;;;13.90;2.60;;;;;;;;;;5011628;28;20099;-70
2023/12/29 13:50:06;;;;;;;10.30;2.20;;;;;;;;;;5013457;28;20503;-70
2023/12/29 13:52:32;;;;;;;9.52;1.73;;;;;;;;;;5013120;28;20042;-70
2023/12/29 13:54:58;;;;;;;8.85;1.90;;;;;;;;;;4997058;28;20048;-70
2023/12/29 13:57:34;;;;;;;7.93;1.88;;;;;;;;;;5013085;28;20128;-70
2023/12/29 14:00:22;;;;;;;7.00;1.80;;;;;;;;;;5008960;28;20100;-70
2023/12/29 14:02:55;;;;;;;18.15;2.25;;;;;;;;;;4984506;28;20050;-70
2023/12/29 14:05:31;;;;;;;12.40;1.98;;;;;;;;;;5012550;28;20073;-70
2023/12/29 14:08:00;;;;;;;9.13;1.58;;;;;;;;;;5012160;28;20041;-70
2023/12/29 14:10:45;;;;;;;8.45;2.00;;;;;;;;;;4994007;28;20446;-70
2023/12/29 14:13:15;;;;;;;12.52;1.77;;;;;;;;;;5009189;28;20093;-70
2023/12/29 14:15:51;;;;;;;9.32;2.05;;;;;;;;;;4996590;28;20053;-70
2023/12/29 14:18:26;;;;;;;13.25;2.20;;;;;;;;;;5014143;28;20049;-70
2023/12/29 14:20:52;;;;;;;9.27;1.98;;;;;;;;;;5008810;28;20127;-71
2023/12/29 14:23:19;;;;;;;7.85;1.73;;;;;;;;;;5011666;28;20065;-71
2023/12/29 14:25:47;;;;;;;15.68;2.10;;;;;;;;;;5008508;28;20141;-71
2023/12/29 14:28:17;;;;;;;7.43;2.05;;;;;;;;;;5008517;28;20080;-71
2023/12/29 14:30:43;;;;;;;13.75;2.35;;;;;;;;;;5007402;28;20112;-71
2023/12/29 14:33:09;;;;;;;15.95;2.08;;;;;;;;;;5007604;28;20134;-71
2023/12/29 14:35:35;;;;;;;10.25;2.30;;;;;;;;;;5012490;28;20128;-71
2023/12/29 14:38:01;;;;;;;12.98;2.10;;;;;;;;;;5008684;28;20118;-71